createdAt,value
2022-08-05T00:01:29.071Z,57.69
2022-08-05T00:03:57.229Z,55.33
2022-08-05T00:06:32.329Z,55.90
2022-08-05T00:09:01.062Z,57.41
2022-08-05T00:11:30.394Z,58.13
2022-08-05T00:14:02.322Z,58.67
2022-08-05T00:16:52.885Z,58.71
2022-08-05T00:19:25.106Z,58.22
2022-08-05T00:21:59.723Z,56.35
2022-08-05T00:24:31.087Z,55.57
2022-08-05T00:27:04.484Z,54.04
2022-08-05T00:29:37.941Z,54.37
2022-08-05T00:32:12.170Z,51.47
2022-08-05T00:35:03.826Z,53.19
2022-08-05T00:37:35.373Z,50.08
2022-08-05T00:40:17.978Z,55.08
2022-08-05T00:43:00.210Z,59.05
2022-08-05T00:45:38.619Z,60.27
2022-08-05T00:48:17.826Z,60.23
2022-08-05T00:50:54.616Z,60.44
2022-08-05T00:53:45.344Z,60.80
2022-08-05T00:56:10.231Z,58.00
2022-08-05T00:58:38.985Z,59.38
2022-08-05T01:01:11.241Z,58.56
2022-08-05T01:03:39.905Z,56.80
2022-08-05T01:06:13.963Z,56.86
2022-08-05T01:08:44.561Z,58.73
2022-08-05T01:11:37.375Z,57.14
2022-08-05T01:14:27.871Z,58.05
2022-08-05T01:17:09.151Z,56.25
2022-08-05T01:19:56.547Z,54.50
2022-08-05T01:23:15.208Z,56.41
2022-08-05T01:26:27.168Z,55.38
2022-08-05T01:29:36.362Z,54.36
2022-08-05T01:32:12.116Z,51.46
2022-08-05T01:34:47.613Z,53.93
2022-08-05T01:37:44.435Z,53.05
2022-08-05T01:40:12.811Z,50.70
2022-08-05T01:42:42.835Z,54.61
2022-08-05T01:45:10.811Z,55.33
2022-08-05T01:47:43.338Z,55.23
2022-08-05T01:50:19.404Z,52.27
2022-08-05T01:53:16.848Z,57.80
2022-08-05T01:56:05.089Z,58.65
2022-08-05T01:58:44.600Z,60.50
2022-08-05T02:01:14.613Z,54.34
2022-08-05T02:03:52.028Z,50.62
2022-08-05T02:06:37.355Z,51.85
2022-08-05T02:09:05.795Z,55.16
2022-08-05T02:11:57.841Z,55.15
2022-08-05T02:14:33.488Z,55.75
2022-08-05T02:18:31.017Z,55.78
2022-08-05T02:20:30.694Z,50.32
2022-08-05T02:23:10.904Z,49.80
2022-08-05T02:25:50.205Z,48.63
2022-08-05T02:28:28.989Z,46.79
2022-08-05T02:31:21.618Z,45.49
2022-08-05T02:33:58.267Z,44.96
2022-08-05T02:36:31.379Z,53.64
2022-08-05T02:39:01.665Z,56.45
2022-08-05T02:41:37.546Z,54.85
2022-08-05T02:44:19.563Z,51.87
2022-08-05T02:46:58.765Z,51.36
2022-08-05T02:49:37.770Z,48.10
2022-08-05T02:52:30.250Z,46.66
2022-08-05T02:55:05.558Z,46.13
2022-08-05T02:58:09.161Z,46.16
2022-08-05T03:00:28.994Z,51.63
2022-08-05T03:02:58.473Z,50.36
2022-08-05T03:06:55.567Z,47.19
2022-08-05T03:08:13.474Z,44.93
2022-08-05T03:11:01.101Z,43.14
2022-08-05T03:13:51.510Z,43.01
2022-08-05T03:16:19.173Z,46.57
2022-08-05T03:18:46.686Z,51.83
2022-08-05T03:21:15.648Z,53.09
2022-08-05T03:23:45.541Z,54.97
2022-08-05T03:26:31.342Z,59.36
2022-08-05T03:29:05.318Z,60.01
2022-08-05T03:31:56.854Z,60.62
2022-08-05T03:34:25.466Z,56.88
2022-08-05T03:36:54.009Z,55.57
2022-08-05T03:39:27.106Z,57.27
2022-08-05T03:41:56.300Z,52.98
2022-08-05T03:44:24.561Z,55.07
2022-08-05T03:46:51.874Z,58.11
2022-08-05T03:49:18.646Z,58.30
2022-08-05T03:52:37.936Z,52.75
2022-08-05T03:56:04.181Z,59.34
2022-08-05T03:57:58.860Z,57.89
2022-08-05T04:00:31.341Z,52.90
2022-08-05T04:03:05.230Z,58.25
2022-08-05T04:05:35.641Z,59.37
2022-08-05T04:08:14.472Z,59.73
2022-08-05T04:10:45.225Z,61.70
2022-08-05T04:13:12.053Z,62.55
2022-08-05T04:15:39.415Z,57.71
2022-08-05T04:18:26.862Z,60.02
2022-08-05T04:20:55.899Z,62.91
2022-08-05T04:24:05.164Z,63.38
2022-08-05T04:26:17.486Z,60.85
2022-08-05T04:28:51.342Z,59.56
2022-08-05T04:31:20.111Z,61.84
2022-08-05T04:34:17.929Z,63.37
2022-08-05T04:36:45.674Z,63.19
2022-08-05T04:39:13.722Z,63.94
2022-08-05T04:41:41.155Z,63.17
2022-08-05T04:44:09.324Z,63.40
2022-08-05T04:46:38.357Z,62.31
2022-08-05T04:49:12.112Z,66.79
2022-08-05T04:51:42.712Z,67.68
2022-08-05T04:54:10.607Z,68.75
2022-08-05T04:56:40.048Z,68.53
2022-08-05T04:59:21.437Z,71.04
2022-08-05T05:02:35.306Z,70.85
2022-08-05T05:04:47.743Z,70.58
2022-08-05T05:07:17.627Z,68.74
2022-08-05T05:09:45.638Z,72.16
2022-08-05T05:12:12.405Z,73.97
2022-08-05T05:14:49.495Z,72.00
2022-08-05T05:17:23.392Z,72.85
2022-08-05T05:19:55.080Z,72.85
2022-08-05T05:22:26.318Z,71.17
2022-08-05T05:25:00.114Z,72.26
2022-08-05T05:27:45.912Z,74.08
2022-08-05T05:30:29.113Z,72.81
2022-08-05T05:33:00.907Z,75.19
2022-08-05T05:35:38.053Z,73.23
2022-08-05T05:38:09.063Z,71.18
2022-08-05T05:40:43.816Z,75.78
2022-08-05T05:43:27.497Z,74.06
2022-08-05T05:46:05.269Z,76.34
2022-08-05T05:48:34.641Z,76.02
2022-08-05T05:51:13.071Z,78.12
2022-08-05T05:53:54.559Z,78.42
2022-08-05T05:56:34.575Z,79.24
2022-08-05T05:59:08.292Z,79.09
2022-08-05T06:01:39.562Z,79.80
2022-08-05T06:04:12.745Z,78.82
2022-08-05T06:06:47.432Z,76.30
2022-08-05T06:09:24.831Z,73.16
2022-08-05T06:11:59.177Z,71.40
2022-08-05T06:14:29.043Z,69.23
2022-08-05T06:16:56.982Z,67.10
2022-08-05T06:19:26.040Z,64.11
2022-08-05T06:22:01.033Z,64.33
2022-08-05T06:24:27.687Z,62.13
2022-08-05T06:26:55.080Z,59.44
2022-08-05T06:29:43.193Z,56.51
2022-08-05T06:32:25.214Z,56.44
2022-08-05T06:34:56.118Z,66.22
2022-08-05T06:37:56.546Z,63.58
2022-08-05T06:40:18.204Z,60.25
2022-08-05T06:42:52.049Z,59.36
2022-08-05T06:45:44.634Z,61.05
2022-08-05T06:48:37.162Z,61.52
2022-08-05T06:50:55.226Z,61.91
2022-08-05T06:53:27.848Z,57.15
2022-08-05T06:55:59.608Z,59.23
2022-08-05T06:58:35.288Z,57.14
2022-08-05T07:01:06.480Z,56.45
2022-08-05T07:03:34.571Z,60.05
2022-08-05T07:06:10.384Z,65.07
2022-08-05T07:08:47.598Z,64.76
2022-08-05T07:11:22.442Z,60.94
2022-08-05T07:14:20.657Z,59.11
2022-08-05T07:17:58.677Z,60.42
2022-08-05T07:22:42.150Z,56.15
2022-08-05T07:25:23.776Z,52.78
2022-08-05T07:28:00.816Z,53.27
2022-08-05T07:30:40.159Z,55.17
2022-08-05T07:33:16.403Z,56.86
2022-08-05T07:36:04.908Z,57.02
2022-08-05T07:38:34.962Z,57.61
2022-08-05T07:42:12.920Z,57.57
2022-08-05T07:44:18.536Z,55.01
2022-08-05T07:46:48.516Z,57.63
2022-08-05T07:49:18.136Z,55.93
2022-08-05T07:51:53.320Z,56.23
2022-08-05T07:54:31.355Z,55.18
2022-08-05T07:57:17.575Z,52.60
2022-08-05T07:59:51.852Z,52.74
2022-08-05T08:02:26.756Z,50.53
2022-08-05T08:04:58.982Z,50.05
2022-08-05T08:07:28.457Z,49.30
2022-08-05T08:09:55.577Z,47.98
2022-08-05T08:12:34.993Z,49.07
2022-08-05T08:15:15.757Z,49.31
2022-08-05T08:17:46.133Z,48.85
2022-08-05T08:20:43.664Z,48.01
2022-08-05T08:23:04.544Z,47.06
2022-08-05T08:26:00.854Z,46.98
2022-08-05T08:28:36.275Z,52.47
2022-08-05T08:31:07.222Z,50.27
2022-08-05T08:33:37.530Z,50.84
2022-08-05T08:38:57.920Z,57.88
2022-08-05T08:41:51.915Z,56.31
2022-08-05T08:45:16.892Z,53.84
2022-08-05T08:47:47.453Z,55.60
2022-08-05T08:50:14.721Z,53.45
2022-08-05T08:52:57.861Z,52.54
2022-08-05T08:55:32.030Z,50.30
2022-08-05T08:58:14.999Z,47.68
2022-08-05T09:00:44.934Z,47.65
2022-08-05T09:03:15.983Z,48.17
2022-08-05T09:06:08.809Z,50.16
2022-08-05T09:08:34.065Z,50.89
2022-08-05T09:11:00.866Z,53.23
2022-08-05T09:13:31.679Z,57.98
2022-08-05T09:15:59.532Z,55.16
2022-08-05T09:18:26.537Z,51.70
2022-08-05T09:20:53.276Z,53.41
2022-08-05T09:23:21.798Z,53.04
2022-08-05T09:26:06.312Z,52.72
2022-08-05T09:28:35.137Z,50.37
2022-08-05T09:31:23.011Z,51.50
2022-08-05T09:34:07.575Z,63.10
2022-08-05T09:39:52.382Z,100.00
2022-08-05T09:42:28.038Z,64.06
2022-08-05T09:45:03.261Z,60.05
2022-08-05T09:47:54.966Z,62.29
2022-08-05T09:50:37.520Z,66.46
2022-08-05T09:53:05.767Z,71.56
2022-08-05T09:55:56.141Z,71.28
2022-08-05T09:58:24.454Z,68.26
2022-08-05T10:05:18.407Z,100.00
2022-08-05T10:11:58.462Z,100.00
2022-08-05T10:18:40.831Z,100.00
2022-08-05T10:25:15.551Z,100.00
2022-08-05T10:32:52.645Z,100.00
2022-08-05T10:38:51.433Z,100.00
2022-08-05T10:45:39.787Z,100.00
2022-08-05T10:48:40.646Z,38.17
2022-08-05T10:51:23.113Z,39.31
2022-08-05T10:54:01.625Z,37.84
2022-08-05T10:56:46.487Z,37.75
2022-08-05T11:00:03.581Z,37.16
2022-08-05T11:02:38.069Z,36.66
2022-08-05T11:05:07.084Z,36.72
2022-08-05T11:08:03.289Z,35.72
2022-08-05T11:10:27.792Z,34.14
2022-08-05T11:12:57.766Z,33.81
2022-08-05T11:15:59.378Z,35.04
2022-08-05T11:18:29.833Z,34.31
2022-08-05T11:20:59.862Z,34.81
2022-08-05T11:23:56.900Z,34.28
2022-08-05T11:26:17.182Z,36.32
2022-08-05T11:28:56.683Z,38.33
2022-08-05T11:31:53.827Z,37.34
2022-08-05T11:34:51.103Z,37.61
2022-08-05T11:38:29.635Z,36.81
2022-08-05T11:41:58.091Z,37.01
2022-08-05T11:44:21.565Z,37.92
2022-08-05T11:47:10.440Z,40.55
2022-08-05T11:49:42.929Z,45.91
2022-08-05T11:52:11.704Z,45.95
2022-08-05T11:54:40.669Z,46.35
2022-08-05T11:57:24.294Z,46.35
2022-08-05T11:59:52.691Z,43.33
2022-08-05T12:02:31.603Z,41.93
2022-08-05T12:05:07.843Z,40.71
2022-08-05T12:08:09.138Z,42.31
2022-08-05T12:10:42.925Z,44.72
2022-08-05T12:13:17.485Z,44.49
2022-08-05T12:15:55.868Z,43.56
2022-08-05T12:18:38.668Z,44.19
2022-08-05T12:21:12.721Z,42.06
2022-08-05T12:23:43.135Z,42.99
2022-08-05T12:26:10.213Z,43.09
2022-08-05T12:28:38.166Z,42.07
2022-08-05T12:31:05.780Z,41.61
2022-08-05T12:33:36.672Z,40.10
2022-08-05T12:36:08.459Z,39.38
2022-08-05T12:38:41.153Z,37.51
2022-08-05T12:41:16.343Z,38.31
2022-08-05T12:43:56.249Z,37.54
2022-08-05T12:46:29.265Z,36.55
2022-08-05T12:49:12.895Z,38.29
2022-08-05T12:52:13.480Z,42.06
2022-08-05T12:54:35.866Z,43.78
2022-08-05T12:57:09.414Z,44.83
2022-08-05T13:01:58.099Z,42.21
2022-08-05T13:02:36.042Z,42.05
2022-08-05T13:05:06.762Z,44.95
2022-08-05T13:07:57.368Z,44.83
2022-08-05T13:10:20.675Z,46.64
2022-08-05T13:12:57.220Z,50.57
2022-08-05T13:15:41.632Z,49.13
2022-08-05T13:18:20.198Z,47.75
2022-08-05T13:20:50.115Z,49.50
2022-08-05T13:23:22.623Z,47.61
2022-08-05T13:25:59.435Z,45.56
2022-08-05T13:28:28.558Z,42.05
2022-08-05T13:30:55.564Z,44.73
2022-08-05T13:34:23.188Z,43.88
2022-08-05T13:36:14.350Z,45.18
2022-08-05T13:38:42.668Z,43.76
2022-08-05T13:41:11.671Z,42.27
2022-08-05T13:43:44.247Z,44.61
2022-08-05T13:46:44.308Z,46.80
2022-08-05T13:49:10.206Z,51.44
2022-08-05T13:51:45.846Z,49.49
2022-08-05T13:54:16.060Z,51.85
2022-08-05T13:56:51.582Z,49.97
2022-08-05T13:59:27.390Z,54.03
2022-08-05T14:02:00.525Z,53.54
2022-08-05T14:04:50.139Z,54.20
2022-08-05T14:07:59.634Z,56.18
2022-08-05T14:10:30.629Z,55.37
2022-08-05T14:12:58.858Z,56.21
2022-08-05T14:16:08.774Z,57.58
2022-08-05T14:18:18.523Z,57.09
2022-08-05T14:20:54.296Z,56.86
2022-08-05T14:23:25.507Z,55.88
2022-08-05T14:25:58.425Z,60.95
2022-08-05T14:28:30.438Z,65.23
2022-08-05T14:30:59.428Z,68.53
2022-08-05T14:33:27.822Z,68.58
2022-08-05T14:36:14.541Z,64.22
2022-08-05T14:38:41.855Z,66.31
2022-08-05T14:41:08.581Z,68.28
2022-08-05T14:44:00.194Z,66.38
2022-08-05T14:46:28.838Z,61.54
2022-08-05T14:49:06.532Z,60.28
2022-08-05T14:51:37.663Z,64.07
2022-08-05T14:54:28.817Z,65.84
2022-08-05T14:56:54.723Z,67.53
2022-08-05T14:59:21.888Z,67.60
2022-08-05T15:01:49.970Z,66.53
2022-08-05T15:04:22.457Z,64.45
2022-08-05T15:06:51.194Z,64.75
2022-08-05T15:09:51.618Z,65.46
2022-08-05T15:12:08.867Z,65.63
2022-08-05T15:14:48.164Z,66.91
2022-08-05T15:17:47.781Z,67.99
2022-08-05T15:20:18.422Z,70.13
2022-08-05T15:22:52.316Z,69.47
2022-08-05T15:25:41.315Z,71.18
2022-08-05T15:28:14.566Z,72.46
2022-08-05T15:30:43.794Z,73.82
2022-08-05T15:33:13.256Z,73.03
2022-08-05T15:35:59.961Z,72.75
2022-08-05T15:38:33.731Z,72.05
2022-08-05T15:41:23.210Z,68.67
2022-08-05T15:43:50.187Z,67.64
2022-08-05T15:46:18.922Z,68.71
2022-08-05T15:48:52.470Z,66.35
2022-08-05T15:52:09.871Z,66.43
2022-08-05T15:54:15.186Z,68.34
2022-08-05T15:56:42.548Z,65.38
2022-08-05T15:59:22.019Z,65.83
2022-08-05T16:01:52.427Z,66.88
2022-08-05T16:04:25.747Z,64.40
2022-08-05T16:06:55.989Z,65.74
2022-08-05T16:09:24.666Z,66.06
2022-08-05T16:11:53.190Z,68.90
2022-08-05T16:14:21.711Z,68.17
2022-08-05T16:16:49.687Z,68.08
2022-08-05T16:19:25.458Z,68.21
2022-08-05T16:22:04.621Z,71.39
2022-08-05T16:24:40.994Z,76.69
2022-08-05T16:27:09.457Z,100.00
2022-08-05T16:29:37.299Z,100.00
2022-08-05T16:32:09.709Z,100.00
2022-08-05T16:34:37.330Z,100.00
2022-08-05T16:38:02.364Z,100.00
2022-08-05T16:40:05.611Z,100.00
2022-08-05T16:42:35.383Z,100.00
2022-08-05T16:46:05.135Z,100.00
2022-08-05T16:47:54.113Z,100.00
2022-08-05T16:50:24.216Z,100.00
2022-08-05T16:52:50.922Z,100.00
2022-08-05T16:55:19.833Z,100.00
2022-08-05T16:57:53.077Z,100.00
2022-08-05T17:00:26.066Z,100.00
2022-08-05T17:03:03.792Z,100.00
2022-08-05T17:05:37.114Z,100.00
2022-08-05T17:08:04.813Z,100.00
2022-08-05T17:10:31.557Z,100.00
2022-08-05T17:12:58.439Z,100.00
2022-08-05T17:15:29.395Z,100.00
2022-08-05T17:18:14.237Z,100.00
2022-08-05T17:20:42.579Z,100.00
2022-08-05T17:23:11.020Z,100.00
2022-08-05T17:25:57.884Z,100.00
2022-08-05T17:28:24.821Z,100.00
2022-08-05T17:30:55.721Z,100.00
2022-08-05T17:33:23.141Z,100.00
2022-08-05T17:36:07.486Z,100.00
2022-08-05T17:38:36.814Z,100.00
2022-08-05T17:41:03.645Z,100.00
2022-08-05T17:43:47.098Z,100.00
2022-08-05T17:46:18.327Z,100.00
2022-08-05T17:48:45.152Z,100.00
2022-08-05T17:51:21.360Z,100.00
2022-08-05T17:53:50.805Z,100.00
2022-08-05T17:56:21.709Z,100.00
2022-08-05T17:58:49.744Z,100.00
2022-08-05T18:01:18.492Z,100.00
2022-08-05T18:03:59.800Z,100.00
2022-08-05T18:06:31.429Z,100.00
2022-08-05T18:08:59.246Z,100.00
2022-08-05T18:11:32.581Z,100.00
2022-08-05T18:14:07.350Z,100.00
2022-08-05T18:16:51.293Z,100.00
2022-08-05T18:19:22.767Z,100.00
2022-08-05T18:22:08.611Z,100.00
2022-08-05T18:24:37.910Z,100.00
2022-08-05T18:27:18.236Z,100.00
2022-08-05T18:29:51.913Z,100.00
2022-08-05T18:32:21.704Z,100.00
2022-08-05T18:34:55.536Z,100.00
2022-08-05T18:37:34.639Z,100.00
2022-08-05T18:40:33.699Z,100.00
2022-08-05T18:42:56.834Z,100.00
2022-08-05T18:45:23.833Z,100.00
2022-08-05T18:47:56.436Z,100.00
2022-08-05T18:50:46.898Z,100.00
2022-08-05T18:53:20.795Z,100.00
2022-08-05T18:55:51.416Z,100.00
2022-08-05T18:58:18.670Z,100.00
2022-08-05T19:00:54.244Z,100.00
2022-08-05T19:03:53.135Z,100.00
2022-08-05T19:06:19.197Z,100.00
2022-08-05T19:08:49.234Z,100.00
2022-08-05T19:11:15.967Z,100.00
2022-08-05T19:14:00.656Z,100.00
2022-08-05T19:16:33.056Z,100.00
2022-08-05T19:19:13.895Z,100.00
2022-08-05T19:21:40.691Z,100.00
2022-08-05T19:24:12.492Z,100.00
2022-08-05T19:26:43.809Z,100.00
2022-08-05T19:29:23.096Z,100.00
2022-08-05T19:31:51.228Z,100.00
2022-08-05T19:34:18.677Z,100.00
2022-08-05T19:36:45.620Z,100.00
2022-08-05T19:39:14.131Z,100.00
2022-08-05T19:42:06.977Z,100.00
2022-08-05T19:44:30.800Z,100.00
2022-08-05T19:46:57.483Z,100.00
2022-08-05T19:49:24.554Z,100.00
2022-08-05T19:52:13.080Z,100.00
2022-08-05T19:54:37.970Z,100.00
2022-08-05T19:57:09.426Z,100.00
2022-08-05T19:59:59.520Z,100.00
2022-08-05T20:02:27.120Z,100.00
2022-08-05T20:04:58.510Z,100.00
2022-08-05T20:07:46.346Z,100.00
2022-08-05T20:10:17.250Z,100.00
2022-08-05T20:12:49.514Z,100.00
2022-08-05T20:15:48.288Z,100.00
2022-08-05T20:18:10.354Z,100.00
2022-08-05T20:20:55.942Z,100.00
2022-08-05T20:23:39.453Z,100.00
2022-08-05T20:26:15.395Z,100.00
2022-08-05T20:28:48.673Z,100.00
2022-08-05T20:31:21.468Z,100.00
2022-08-05T20:33:50.194Z,100.00
2022-08-05T20:36:18.260Z,100.00
2022-08-05T20:38:54.441Z,100.00
2022-08-05T20:41:27.116Z,100.00
2022-08-05T20:44:17.686Z,100.00
2022-08-05T20:46:47.934Z,100.00
2022-08-05T20:49:15.051Z,100.00
2022-08-05T20:51:53.362Z,100.00
2022-08-05T20:54:20.800Z,100.00
2022-08-05T20:56:47.683Z,100.00
2022-08-05T20:59:26.320Z,100.00
2022-08-05T21:01:57.133Z,100.00
2022-08-05T21:04:27.076Z,100.00
2022-08-05T21:06:54.772Z,100.00
2022-08-05T21:09:22.689Z,100.00
2022-08-05T21:12:09.702Z,100.00
2022-08-05T21:14:39.552Z,100.00
2022-08-05T21:17:06.558Z,100.00
2022-08-05T21:19:47.208Z,100.00
2022-08-05T21:22:17.608Z,100.00
2022-08-05T21:24:48.957Z,100.00
2022-08-05T21:27:24.930Z,100.00
2022-08-05T21:29:54.187Z,100.00
2022-08-05T21:32:27.747Z,100.00
2022-08-05T21:35:16.708Z,100.00
2022-08-05T21:37:47.388Z,100.00
2022-08-05T21:40:24.163Z,100.00
2022-08-05T21:42:54.341Z,100.00
2022-08-05T21:45:56.327Z,100.00
2022-08-05T21:48:13.579Z,100.00
2022-08-05T21:50:42.101Z,100.00
2022-08-05T21:53:19.933Z,100.00
2022-08-05T21:56:04.203Z,100.00
2022-08-05T21:58:33.235Z,100.00
2022-08-05T22:01:00.662Z,100.00
2022-08-05T22:03:48.199Z,100.00
2022-08-05T22:06:23.075Z,100.00
2022-08-05T22:09:01.929Z,100.00
2022-08-05T22:11:40.824Z,100.00
2022-08-05T22:14:32.786Z,100.00
2022-08-05T22:16:57.004Z,100.00
2022-08-05T22:20:02.181Z,100.00
2022-08-05T22:22:12.585Z,100.00
2022-08-05T22:25:01.181Z,100.00
2022-08-05T22:28:09.415Z,100.00
2022-08-05T22:30:35.088Z,100.00
2022-08-05T22:33:15.741Z,100.00
2022-08-05T22:35:48.977Z,100.00
2022-08-05T22:38:17.181Z,100.00
2022-08-05T22:40:49.764Z,100.00
2022-08-05T22:43:37.138Z,100.00
2022-08-05T22:46:13.090Z,100.00
2022-08-05T22:48:47.790Z,100.00
2022-08-05T22:51:16.091Z,100.00
2022-08-05T22:53:51.074Z,100.00
2022-08-05T22:56:30.484Z,100.00
2022-08-05T22:59:03.914Z,100.00
2022-08-05T23:02:04.471Z,100.00
2022-08-05T23:04:33.824Z,100.00
2022-08-05T23:07:00.743Z,100.00
2022-08-05T23:09:57.855Z,100.00
2022-08-05T23:12:16.242Z,100.00
2022-08-05T23:14:43.735Z,100.00
2022-08-05T23:17:32.685Z,100.00
2022-08-05T23:20:10.494Z,100.00
2022-08-05T23:22:47.249Z,100.00
2022-08-05T23:25:17.360Z,100.00
2022-08-05T23:28:07.161Z,100.00
2022-08-05T23:30:40.663Z,100.00
2022-08-05T23:33:16.134Z,100.00
2022-08-05T23:35:50.752Z,100.00
2022-08-05T23:38:18.296Z,100.00
2022-08-05T23:40:49.801Z,100.00
2022-08-05T23:43:25.685Z,100.00
2022-08-05T23:46:20.048Z,100.00
2022-08-05T23:49:00.769Z,100.00
2022-08-05T23:51:55.253Z,100.00
2022-08-05T23:54:30.263Z,100.00
2022-08-05T23:57:04.069Z,100.00
